Myrtle Beach, SC

4:59 PM EDT on August 23, 2014 (GMT -0400)
Myrtle Beach International | Change Station
CLOSE
Current Station
Airport
Location: Myrtle Beach,
Elevation: 26 ft
Nearby Weather Stations
Active Advisory: Special Statement

Elev 26 ft 33.68 °N, 78.93 °W | Updated 14 minutes ago

Thunderstorms and Rain
Thunderstorm Rain
79 °F
Feels Like 79 °F
N
18
Wind Variable Wind from SE

Today
High -- | Low -- °F
--% Chance of Precip.
Yesterday
High -- | Low -- °F
Precip. -- in
6:43 AM 7:52 PM
Waning Crescent, 3% visible
Pressure 29.87 in
Visibility 2.0 miles
Clouds Mostly Cloudy 1800 ft
Dew Point 75 °F
Humidity 89%
Rainfall 0.00 in
Snow Depth Not available.
UV 3 out of 12
Pollen 8.00 out of 12
Air Quality Not available.
Flu Activity Not available.
METAR KMYR 232045Z 13016KT 2SM TSRA BKN018 26/24 A2987

More Conditions Fewer Conditions

Pressure 29.87 in
Visibility 2.0 miles
Clouds Mostly Cloudy 1800 ft
Dew Point 75 °F
Humidity 89%
Rainfall 0.00 in
Snow Depth Not available.
UV 3 out of 12
Pollen 8.00 out of 12
Air Quality Not available.
Flu Activity Not available.
METAR KMYR 232045Z 13016KT 2SM TSRA BKN018 26/24 A2987

More Conditions Fewer Conditions

10-Day Weather Forecast

Almanac

Astronomy

Aug. 23, 2014 Rise Set
Actual Time 6:43 AM EDT 7:52 PM EDT
Civil Twilight 6:17 AM EDT 8:18 PM EDT
Nautical Twilight 5:46 AM EDT 8:49 PM EDT
Astronomical Twilight 5:14 AM EDT 9:20 PM EDT
Moon 4:59 AM EDT 6:35 PM EDT
Length of Visible Light 14h 00m
Length of Day
13h 09m
Tomorrow will be 1m 56s shorter.
Waning Crescent, 3% of the Moon is Illuminated
Today
Waning Crescent
Aug 25
New
Sep 2
First Quarter
Sep 8
Full
Sep 15
Last Quarter

Today's Extremes

State Highs State Lows

Community

WunderPhotos

Upload Photos

1,746,622 photos uploaded!

WunderBlogs® & News

By Dr. Jeff Masters
Director of Meteorology, Weather Underground
By Kari Strenfel
Meteorologist, Weather Underground
By Christopher C. Burt
Weather Historian, Weather Underground
August 23, 2014
August 23, 2014
August 23, 2014

Nearby

Snow Depth

Station Depth Elevation
No new snow has been reported.

Earthquake Activity

City Distance Mag. Time & Date
No recent earthquake activity has been reported nearby.
Minimum magnitude displayed is 2.5.

Coastal Water Temperatures

Place Temperature
Springmaid Pier, SC 86.0 °F

Nearby Weather Stations